sensor_id;sensor_type;location;lat;lon;timestamp;temperature;humidity
71142;DHT22;58808;59.366;17.970;2023-06-10T00:01:55;10.60;70.00
71142;DHT22;58808;59.366;17.970;2023-06-10T00:04:23;10.50;70.40
71142;DHT22;58808;59.366;17.970;2023-06-10T00:06:49;10.30;71.80
71142;DHT22;58808;59.366;17.970;2023-06-10T00:09:15;9.90;72.30
71142;DHT22;58808;59.366;17.970;2023-06-10T00:11:41;9.50;74.90
71142;DHT22;58808;59.366;17.970;2023-06-10T00:14:08;9.70;74.90
71142;DHT22;58808;59.366;17.970;2023-06-10T00:16:34;9.80;74.70
71142;DHT22;58808;59.366;17.970;2023-06-10T00:19:00;9.80;74.70
71142;DHT22;58808;59.366;17.970;2023-06-10T00:21:31;9.90;75.20
71142;DHT22;58808;59.366;17.970;2023-06-10T00:24:04;9.80;75.70
71142;DHT22;58808;59.366;17.970;2023-06-10T00:26:30;9.70;76.30
71142;DHT22;58808;59.366;17.970;2023-06-10T00:28:56;9.70;76.70
71142;DHT22;58808;59.366;17.970;2023-06-10T00:31:22;9.70;77.00
71142;DHT22;58808;59.366;17.970;2023-06-10T00:33:47;9.70;77.50
71142;DHT22;58808;59.366;17.970;2023-06-10T00:36:13;9.80;77.10
71142;DHT22;58808;59.366;17.970;2023-06-10T00:38:39;9.80;77.20
71142;DHT22;58808;59.366;17.970;2023-06-10T00:41:06;9.70;77.50
71142;DHT22;58808;59.366;17.970;2023-06-10T00:43:33;9.70;78.30
71142;DHT22;58808;59.366;17.970;2023-06-10T00:45:59;9.60;79.00
71142;DHT22;58808;59.366;17.970;2023-06-10T00:48:25;9.50;79.40
71142;DHT22;58808;59.366;17.970;2023-06-10T00:50:51;9.70;79.10
71142;DHT22;58808;59.366;17.970;2023-06-10T00:53:17;9.90;78.40
71142;DHT22;58808;59.366;17.970;2023-06-10T00:55:44;9.80;79.10
71142;DHT22;58808;59.366;17.970;2023-06-10T00:58:10;9.80;79.60
71142;DHT22;58808;59.366;17.970;2023-06-10T01:00:36;9.60;80.50
71142;DHT22;58808;59.366;17.970;2023-06-10T01:03:02;9.50;81.30
71142;DHT22;58808;59.366;17.970;2023-06-10T01:05:33;9.40;82.30
71142;DHT22;58808;59.366;17.970;2023-06-10T01:08:19;9.20;83.60
71142;DHT22;58808;59.366;17.970;2023-06-10T01:11:02;9.20;84.70
71142;DHT22;58808;59.366;17.970;2023-06-10T01:13:29;9.30;85.10
71142;DHT22;58808;59.366;17.970;2023-06-10T01:15:58;9.20;85.60
71142;DHT22;58808;59.366;17.970;2023-06-10T01:18:30;9.30;86.00
71142;DHT22;58808;59.366;17.970;2023-06-10T01:20:56;9.30;86.00
71142;DHT22;58808;59.366;17.970;2023-06-10T01:23:23;9.20;86.40
71142;DHT22;58808;59.366;17.970;2023-06-10T01:26:05;9.10;87.40
71142;DHT22;58808;59.366;17.970;2023-06-10T01:29:00;9.20;87.50
71142;DHT22;58808;59.366;17.970;2023-06-10T01:31:48;9.10;88.30
71142;DHT22;58808;59.366;17.970;2023-06-10T01:34:18;9.00;89.70
71142;DHT22;58808;59.366;17.970;2023-06-10T01:36:47;9.00;90.00
71142;DHT22;58808;59.366;17.970;2023-06-10T01:39:15;9.00;90.20
71142;DHT22;58808;59.366;17.970;2023-06-10T01:41:42;9.00;90.40
71142;DHT22;58808;59.366;17.970;2023-06-10T01:44:08;8.90;90.80
71142;DHT22;58808;59.366;17.970;2023-06-10T01:46:34;8.70;91.40
71142;DHT22;58808;59.366;17.970;2023-06-10T01:49:00;8.70;91.90
71142;DHT22;58808;59.366;17.970;2023-06-10T01:51:25;8.70;92.30
71142;DHT22;58808;59.366;17.970;2023-06-10T01:53:51;8.80;92.60
71142;DHT22;58808;59.366;17.970;2023-06-10T01:56:17;8.80;92.70
71142;DHT22;58808;59.366;17.970;2023-06-10T01:58:45;8.90;92.70
71142;DHT22;58808;59.366;17.970;2023-06-10T02:01:11;8.90;93.00
71142;DHT22;58808;59.366;17.970;2023-06-10T02:03:37;8.80;93.40
71142;DHT22;58808;59.366;17.970;2023-06-10T02:06:03;8.80;94.00
71142;DHT22;58808;59.366;17.970;2023-06-10T02:08:29;8.80;94.30
71142;DHT22;58808;59.366;17.970;2023-06-10T02:10:55;8.70;95.00
71142;DHT22;58808;59.366;17.970;2023-06-10T02:13:20;8.70;95.60
71142;DHT22;58808;59.366;17.970;2023-06-10T02:15:46;8.70;95.90
71142;DHT22;58808;59.366;17.970;2023-06-10T02:18:12;8.70;96.20
71142;DHT22;58808;59.366;17.970;2023-06-10T02:20:38;8.70;96.70
71142;DHT22;58808;59.366;17.970;2023-06-10T02:23:04;8.60;97.20
71142;DHT22;58808;59.366;17.970;2023-06-10T02:25:30;8.70;97.60
71142;DHT22;58808;59.366;17.970;2023-06-10T02:27:56;8.60;98.00
71142;DHT22;58808;59.366;17.970;2023-06-10T02:30:22;8.60;98.40
71142;DHT22;58808;59.366;17.970;2023-06-10T02:32:47;8.70;98.70
71142;DHT22;58808;59.366;17.970;2023-06-10T02:35:17;8.80;98.90
71142;DHT22;58808;59.366;17.970;2023-06-10T02:37:43;8.80;99.00
71142;DHT22;58808;59.366;17.970;2023-06-10T02:40:09;8.70;99.80
71142;DHT22;58808;59.366;17.970;2023-06-10T02:42:36;8.70;99.90
71142;DHT22;58808;59.366;17.970;2023-06-10T02:45:02;8.70;99.90
71142;DHT22;58808;59.366;17.970;2023-06-10T02:47:28;8.80;99.90
71142;DHT22;58808;59.366;17.970;2023-06-10T02:49:53;8.80;99.90
71142;DHT22;58808;59.366;17.970;2023-06-10T02:52:19;8.80;99.90
71142;DHT22;58808;59.366;17.970;2023-06-10T02:54:46;8.70;99.90
71142;DHT22;58808;59.366;17.970;2023-06-10T02:57:11;8.70;99.90
71142;DHT22;58808;59.366;17.970;2023-06-10T02:59:39;8.70;99.90
71142;DHT22;58808;59.366;17.970;2023-06-10T03:02:05;8.70;99.90
71142;DHT22;58808;59.366;17.970;2023-06-10T03:04:31;8.70;99.90
71142;DHT22;58808;59.366;17.970;2023-06-10T03:06:57;8.70;99.90
71142;DHT22;58808;59.366;17.970;2023-06-10T03:09:22;8.70;99.90
71142;DHT22;58808;59.366;17.970;2023-06-10T03:11:48;8.70;99.90
71142;DHT22;58808;59.366;17.970;2023-06-10T03:14:14;8.80;99.90
71142;DHT22;58808;59.366;17.970;2023-06-10T03:16:40;8.90;99.90
71142;DHT22;58808;59.366;17.970;2023-06-10T03:19:06;9.10;99.90
71142;DHT22;58808;59.366;17.970;2023-06-10T03:21:36;9.10;99.90
71142;DHT22;58808;59.366;17.970;2023-06-10T03:24:03;9.20;99.90
71142;DHT22;58808;59.366;17.970;2023-06-10T03:26:29;9.30;99.90
71142;DHT22;58808;59.366;17.970;2023-06-10T03:28:55;9.40;99.90
71142;DHT22;58808;59.366;17.970;2023-06-10T03:31:20;9.50;99.90
71142;DHT22;58808;59.366;17.970;2023-06-10T03:33:46;9.60;99.90
71142;DHT22;58808;59.366;17.970;2023-06-10T03:36:12;9.60;99.90
71142;DHT22;58808;59.366;17.970;2023-06-10T03:38:38;9.70;99.90
71142;DHT22;58808;59.366;17.970;2023-06-10T03:41:03;9.80;99.90
71142;DHT22;58808;59.366;17.970;2023-06-10T03:43:29;9.90;99.90
71142;DHT22;58808;59.366;17.970;2023-06-10T03:45:56;10.00;99.90
71142;DHT22;58808;59.366;17.970;2023-06-10T03:48:22;10.00;99.90
71142;DHT22;58808;59.366;17.970;2023-06-10T03:50:48;10.00;99.90
71142;DHT22;58808;59.366;17.970;2023-06-10T03:53:16;9.90;99.90
71142;DHT22;58808;59.366;17.970;2023-06-10T03:55:42;10.00;99.90
71142;DHT22;58808;59.366;17.970;2023-06-10T03:58:08;10.00;99.90
71142;DHT22;58808;59.366;17.970;2023-06-10T04:00:34;10.00;99.90
71142;DHT22;58808;59.366;17.970;2023-06-10T04:03:09;10.10;99.90
71142;DHT22;58808;59.366;17.970;2023-06-10T04:05:40;10.20;99.90
71142;DHT22;58808;59.366;17.970;2023-06-10T04:08:07;10.20;99.30
71142;DHT22;58808;59.366;17.970;2023-06-10T04:10:33;10.30;99.40
71142;DHT22;58808;59.366;17.970;2023-06-10T04:12:58;10.30;99.50
71142;DHT22;58808;59.366;17.970;2023-06-10T04:15:25;10.30;99.80
71142;DHT22;58808;59.366;17.970;2023-06-10T04:17:51;10.40;99.30
71142;DHT22;58808;59.366;17.970;2023-06-10T04:20:17;10.40;99.30
71142;DHT22;58808;59.366;17.970;2023-06-10T04:22:42;10.50;99.20
71142;DHT22;58808;59.366;17.970;2023-06-10T04:25:09;10.50;98.70
71142;DHT22;58808;59.366;17.970;2023-06-10T04:27:35;10.50;98.80
71142;DHT22;58808;59.366;17.970;2023-06-10T04:30:02;10.40;99.10
71142;DHT22;58808;59.366;17.970;2023-06-10T04:32:28;10.50;99.00
71142;DHT22;58808;59.366;17.970;2023-06-10T04:34:53;10.50;98.80
71142;DHT22;58808;59.366;17.970;2023-06-10T04:37:19;10.60;98.70
71142;DHT22;58808;59.366;17.970;2023-06-10T04:39:45;10.70;98.50
71142;DHT22;58808;59.366;17.970;2023-06-10T04:42:11;10.70;98.50
71142;DHT22;58808;59.366;17.970;2023-06-10T04:44:37;10.80;98.20
71142;DHT22;58808;59.366;17.970;2023-06-10T04:47:02;10.90;98.10
71142;DHT22;58808;59.366;17.970;2023-06-10T04:49:28;10.90;97.70
71142;DHT22;58808;59.366;17.970;2023-06-10T04:51:55;10.90;97.50
71142;DHT22;58808;59.366;17.970;2023-06-10T04:54:20;11.00;97.30
71142;DHT22;58808;59.366;17.970;2023-06-10T04:56:46;11.10;97.00
71142;DHT22;58808;59.366;17.970;2023-06-10T04:59:12;11.10;96.70
71142;DHT22;58808;59.366;17.970;2023-06-10T05:01:39;11.20;96.40
71142;DHT22;58808;59.366;17.970;2023-06-10T05:04:05;11.20;95.80
71142;DHT22;58808;59.366;17.970;2023-06-10T05:06:31;11.30;95.30
71142;DHT22;58808;59.366;17.970;2023-06-10T05:08:56;11.20;95.00
71142;DHT22;58808;59.366;17.970;2023-06-10T05:11:22;11.30;94.90
71142;DHT22;58808;59.366;17.970;2023-06-10T05:13:48;11.30;94.50
71142;DHT22;58808;59.366;17.970;2023-06-10T05:16:14;11.40;94.70
71142;DHT22;58808;59.366;17.970;2023-06-10T05:18:41;11.40;94.80
71142;DHT22;58808;59.366;17.970;2023-06-10T05:21:06;11.50;95.00
71142;DHT22;58808;59.366;17.970;2023-06-10T05:23:33;11.50;95.10
71142;DHT22;58808;59.366;17.970;2023-06-10T05:25:58;11.60;95.10
71142;DHT22;58808;59.366;17.970;2023-06-10T05:28:25;11.60;94.70
71142;DHT22;58808;59.366;17.970;2023-06-10T05:30:51;11.60;94.80
71142;DHT22;58808;59.366;17.970;2023-06-10T05:33:17;11.60;94.30
71142;DHT22;58808;59.366;17.970;2023-06-10T05:35:42;11.70;94.30
71142;DHT22;58808;59.366;17.970;2023-06-10T05:38:08;11.70;93.80
71142;DHT22;58808;59.366;17.970;2023-06-10T05:40:34;11.70;93.30
71142;DHT22;58808;59.366;17.970;2023-06-10T05:42:59;11.70;93.50
71142;DHT22;58808;59.366;17.970;2023-06-10T05:45:26;11.80;93.30
71142;DHT22;58808;59.366;17.970;2023-06-10T05:47:52;11.80;93.20
71142;DHT22;58808;59.366;17.970;2023-06-10T05:50:17;11.80;93.40
71142;DHT22;58808;59.366;17.970;2023-06-10T05:52:43;11.90;93.50
71142;DHT22;58808;59.366;17.970;2023-06-10T05:55:09;11.90;93.10
71142;DHT22;58808;59.366;17.970;2023-06-10T05:57:35;12.00;93.00
71142;DHT22;58808;59.366;17.970;2023-06-10T06:00:01;12.00;92.50
71142;DHT22;58808;59.366;17.970;2023-06-10T06:02:27;12.10;92.40
71142;DHT22;58808;59.366;17.970;2023-06-10T06:04:52;12.20;92.30
71142;DHT22;58808;59.366;17.970;2023-06-10T06:07:18;12.20;91.90
71142;DHT22;58808;59.366;17.970;2023-06-10T06:09:47;12.20;91.90
71142;DHT22;58808;59.366;17.970;2023-06-10T06:12:12;12.30;91.90
71142;DHT22;58808;59.366;17.970;2023-06-10T06:14:38;12.30;92.00
71142;DHT22;58808;59.366;17.970;2023-06-10T06:17:05;12.30;91.40
71142;DHT22;58808;59.366;17.970;2023-06-10T06:19:31;12.40;91.10
71142;DHT22;58808;59.366;17.970;2023-06-10T06:21:57;12.50;90.60
71142;DHT22;58808;59.366;17.970;2023-06-10T06:24:23;12.60;90.90
71142;DHT22;58808;59.366;17.970;2023-06-10T06:26:48;12.60;91.00
71142;DHT22;58808;59.366;17.970;2023-06-10T06:29:14;12.70;91.10
71142;DHT22;58808;59.366;17.970;2023-06-10T06:31:40;12.70;91.10
71142;DHT22;58808;59.366;17.970;2023-06-10T06:34:05;12.80;91.00
71142;DHT22;58808;59.366;17.970;2023-06-10T06:36:31;12.80;90.70
71142;DHT22;58808;59.366;17.970;2023-06-10T06:38:57;12.90;90.10
71142;DHT22;58808;59.366;17.970;2023-06-10T06:41:27;13.00;89.10
71142;DHT22;58808;59.366;17.970;2023-06-10T06:43:54;13.00;89.30
71142;DHT22;58808;59.366;17.970;2023-06-10T06:46:20;13.10;89.60
71142;DHT22;58808;59.366;17.970;2023-06-10T06:48:46;13.10;90.20
71142;DHT22;58808;59.366;17.970;2023-06-10T06:51:12;13.20;88.40
71142;DHT22;58808;59.366;17.970;2023-06-10T06:53:39;13.30;86.70
71142;DHT22;58808;59.366;17.970;2023-06-10T06:56:12;13.40;85.50
71142;DHT22;58808;59.366;17.970;2023-06-10T06:58:38;13.50;83.90
71142;DHT22;58808;59.366;17.970;2023-06-10T07:01:04;13.50;84.50
71142;DHT22;58808;59.366;17.970;2023-06-10T07:03:30;13.70;84.20
71142;DHT22;58808;59.366;17.970;2023-06-10T07:05:56;13.80;83.00
71142;DHT22;58808;59.366;17.970;2023-06-10T07:08:22;14.00;82.60
71142;DHT22;58808;59.366;17.970;2023-06-10T07:10:47;14.10;80.40
71142;DHT22;58808;59.366;17.970;2023-06-10T07:13:14;14.20;79.80
71142;DHT22;58808;59.366;17.970;2023-06-10T07:15:40;14.40;79.70
71142;DHT22;58808;59.366;17.970;2023-06-10T07:18:06;14.60;77.70
71142;DHT22;58808;59.366;17.970;2023-06-10T07:20:31;14.80;75.40
71142;DHT22;58808;59.366;17.970;2023-06-10T07:22:57;14.90;74.90
71142;DHT22;58808;59.366;17.970;2023-06-10T07:25:23;15.00;75.90
71142;DHT22;58808;59.366;17.970;2023-06-10T07:27:49;15.20;74.50
71142;DHT22;58808;59.366;17.970;2023-06-10T07:30:15;15.30;74.00
71142;DHT22;58808;59.366;17.970;2023-06-10T07:32:41;15.50;74.00
71142;DHT22;58808;59.366;17.970;2023-06-10T07:35:09;15.70;70.40
71142;DHT22;58808;59.366;17.970;2023-06-10T07:37:36;15.90;70.10
71142;DHT22;58808;59.366;17.970;2023-06-10T07:40:02;16.10;67.40
71142;DHT22;58808;59.366;17.970;2023-06-10T07:42:28;16.30;63.90
71142;DHT22;58808;59.366;17.970;2023-06-10T07:44:54;16.50;63.60
71142;DHT22;58808;59.366;17.970;2023-06-10T07:47:20;16.60;63.00
71142;DHT22;58808;59.366;17.970;2023-06-10T07:49:45;16.80;62.00
71142;DHT22;58808;59.366;17.970;2023-06-10T07:52:11;16.90;61.20
71142;DHT22;58808;59.366;17.970;2023-06-10T07:54:37;17.10;57.50
71142;DHT22;58808;59.366;17.970;2023-06-10T07:57:03;17.30;55.30
71142;DHT22;58808;59.366;17.970;2023-06-10T07:59:28;17.50;52.20
71142;DHT22;58808;59.366;17.970;2023-06-10T08:01:54;17.60;54.60
71142;DHT22;58808;59.366;17.970;2023-06-10T08:04:20;17.70;53.90
71142;DHT22;58808;59.366;17.970;2023-06-10T08:06:46;17.80;51.30
71142;DHT22;58808;59.366;17.970;2023-06-10T08:09:11;17.80;50.70
71142;DHT22;58808;59.366;17.970;2023-06-10T08:11:37;17.90;50.80
71142;DHT22;58808;59.366;17.970;2023-06-10T08:14:03;18.00;50.00
71142;DHT22;58808;59.366;17.970;2023-06-10T08:16:28;18.00;47.30
71142;DHT22;58808;59.366;17.970;2023-06-10T08:18:54;18.00;46.80
71142;DHT22;58808;59.366;17.970;2023-06-10T08:21:20;18.00;47.50
71142;DHT22;58808;59.366;17.970;2023-06-10T08:23:46;18.10;47.60
71142;DHT22;58808;59.366;17.970;2023-06-10T08:26:11;18.30;48.10
71142;DHT22;58808;59.366;17.970;2023-06-10T08:28:37;18.40;47.30
71142;DHT22;58808;59.366;17.970;2023-06-10T08:31:03;18.50;46.80
71142;DHT22;58808;59.366;17.970;2023-06-10T08:33:29;18.60;46.50
71142;DHT22;58808;59.366;17.970;2023-06-10T08:35:54;18.60;45.90
71142;DHT22;58808;59.366;17.970;2023-06-10T08:38:20;18.70;46.30
71142;DHT22;58808;59.366;17.970;2023-06-10T08:40:46;18.80;44.70
71142;DHT22;58808;59.366;17.970;2023-06-10T08:43:28;18.80;44.20
71142;DHT22;58808;59.366;17.970;2023-06-10T08:45:59;18.90;44.10
71142;DHT22;58808;59.366;17.970;2023-06-10T08:48:28;19.10;45.60
71142;DHT22;58808;59.366;17.970;2023-06-10T08:50:56;19.20;45.30
71142;DHT22;58808;59.366;17.970;2023-06-10T08:53:23;19.30;43.80
71142;DHT22;58808;59.366;17.970;2023-06-10T08:55:53;19.30;44.40
71142;DHT22;58808;59.366;17.970;2023-06-10T08:58:20;19.40;44.90
71142;DHT22;58808;59.366;17.970;2023-06-10T09:00:46;19.40;44.50
71142;DHT22;58808;59.366;17.970;2023-06-10T09:03:12;19.50;44.50
71142;DHT22;58808;59.366;17.970;2023-06-10T09:05:38;19.50;43.80
71142;DHT22;58808;59.366;17.970;2023-06-10T09:08:06;19.60;43.30
71142;DHT22;58808;59.366;17.970;2023-06-10T09:10:34;19.70;41.60
71142;DHT22;58808;59.366;17.970;2023-06-10T09:13:09;19.70;40.00
71142;DHT22;58808;59.366;17.970;2023-06-10T09:15:35;19.60;40.60
71142;DHT22;58808;59.366;17.970;2023-06-10T09:18:01;19.60;40.30
71142;DHT22;58808;59.366;17.970;2023-06-10T09:20:27;19.80;42.00
71142;DHT22;58808;59.366;17.970;2023-06-10T09:22:53;20.00;41.50
71142;DHT22;58808;59.366;17.970;2023-06-10T09:25:19;20.00;40.40
71142;DHT22;58808;59.366;17.970;2023-06-10T09:27:59;19.80;39.60
71142;DHT22;58808;59.366;17.970;2023-06-10T09:30:34;19.70;40.80
71142;DHT22;58808;59.366;17.970;2023-06-10T09:33:02;19.90;40.40
71142;DHT22;58808;59.366;17.970;2023-06-10T09:35:30;20.00;39.90
71142;DHT22;58808;59.366;17.970;2023-06-10T09:38:00;20.20;39.20
71142;DHT22;58808;59.366;17.970;2023-06-10T09:40:26;20.40;39.30
71142;DHT22;58808;59.366;17.970;2023-06-10T09:42:58;20.40;36.20
71142;DHT22;58808;59.366;17.970;2023-06-10T09:45:30;20.40;36.10
71142;DHT22;58808;59.366;17.970;2023-06-10T09:48:00;20.50;37.70
71142;DHT22;58808;59.366;17.970;2023-06-10T09:50:25;20.50;38.10
71142;DHT22;58808;59.366;17.970;2023-06-10T09:52:51;20.60;37.00
71142;DHT22;58808;59.366;17.970;2023-06-10T09:55:17;20.60;36.10
71142;DHT22;58808;59.366;17.970;2023-06-10T09:57:43;20.70;36.80
71142;DHT22;58808;59.366;17.970;2023-06-10T10:00:14;20.90;38.40
71142;DHT22;58808;59.366;17.970;2023-06-10T10:02:50;21.00;36.70
71142;DHT22;58808;59.366;17.970;2023-06-10T10:05:17;21.10;37.40
71142;DHT22;58808;59.366;17.970;2023-06-10T10:07:44;21.20;35.10
71142;DHT22;58808;59.366;17.970;2023-06-10T10:10:11;21.00;34.80
71142;DHT22;58808;59.366;17.970;2023-06-10T10:12:41;21.10;35.80
71142;DHT22;58808;59.366;17.970;2023-06-10T10:15:11;21.20;36.00
71142;DHT22;58808;59.366;17.970;2023-06-10T10:17:43;21.30;34.70
71142;DHT22;58808;59.366;17.970;2023-06-10T10:20:13;21.40;35.30
71142;DHT22;58808;59.366;17.970;2023-06-10T10:22:41;21.50;34.40
71142;DHT22;58808;59.366;17.970;2023-06-10T10:25:16;21.60;35.20
71142;DHT22;58808;59.366;17.970;2023-06-10T10:27:51;21.60;34.00
71142;DHT22;58808;59.366;17.970;2023-06-10T10:30:20;21.60;35.00
71142;DHT22;58808;59.366;17.970;2023-06-10T10:32:57;21.70;35.70
71142;DHT22;58808;59.366;17.970;2023-06-10T10:35:25;21.90;34.30
71142;DHT22;58808;59.366;17.970;2023-06-10T10:37:53;21.90;35.50
71142;DHT22;58808;59.366;17.970;2023-06-10T10:40:21;22.10;34.10
71142;DHT22;58808;59.366;17.970;2023-06-10T10:42:49;22.20;33.60
71142;DHT22;58808;59.366;17.970;2023-06-10T10:45:15;22.00;30.50
71142;DHT22;58808;59.366;17.970;2023-06-10T10:47:42;21.90;30.60
71142;DHT22;58808;59.366;17.970;2023-06-10T10:50:19;22.00;30.50
71142;DHT22;58808;59.366;17.970;2023-06-10T10:52:55;21.90;29.70
71142;DHT22;58808;59.366;17.970;2023-06-10T10:55:22;21.80;31.90
71142;DHT22;58808;59.366;17.970;2023-06-10T10:58:11;21.70;34.40
71142;DHT22;58808;59.366;17.970;2023-06-10T11:00:44;21.80;34.00
71142;DHT22;58808;59.366;17.970;2023-06-10T11:03:17;22.00;35.00
71142;DHT22;58808;59.366;17.970;2023-06-10T11:05:48;21.90;32.40
71142;DHT22;58808;59.366;17.970;2023-06-10T11:08:15;21.60;33.70
71142;DHT22;58808;59.366;17.970;2023-06-10T11:10:51;21.50;33.20
71142;DHT22;58808;59.366;17.970;2023-06-10T11:13:20;21.60;32.80
71142;DHT22;58808;59.366;17.970;2023-06-10T11:15:50;21.80;35.20
71142;DHT22;58808;59.366;17.970;2023-06-10T11:18:26;22.10;35.60
71142;DHT22;58808;59.366;17.970;2023-06-10T11:20:54;22.20;33.10
71142;DHT22;58808;59.366;17.970;2023-06-10T11:31:33;22.70;32.90
71142;DHT22;58808;59.366;17.970;2023-06-10T11:34:02;22.70;32.00
71142;DHT22;58808;59.366;17.970;2023-06-10T11:36:42;22.80;31.90
71142;DHT22;58808;59.366;17.970;2023-06-10T11:39:11;22.90;33.80
71142;DHT22;58808;59.366;17.970;2023-06-10T11:41:38;23.00;34.00
71142;DHT22;58808;59.366;17.970;2023-06-10T11:44:08;23.20;34.50
71142;DHT22;58808;59.366;17.970;2023-06-10T11:46:34;23.00;33.80
71142;DHT22;58808;59.366;17.970;2023-06-10T11:49:01;23.00;33.70
71142;DHT22;58808;59.366;17.970;2023-06-10T11:51:38;22.90;34.50
71142;DHT22;58808;59.366;17.970;2023-06-10T11:54:05;22.80;34.50
71142;DHT22;58808;59.366;17.970;2023-06-10T11:56:32;22.60;35.20
71142;DHT22;58808;59.366;17.970;2023-06-10T11:59:01;22.60;36.30
71142;DHT22;58808;59.366;17.970;2023-06-10T12:01:33;22.90;37.00
71142;DHT22;58808;59.366;17.970;2023-06-10T12:04:10;23.30;36.20
71142;DHT22;58808;59.366;17.970;2023-06-10T12:06:40;23.50;35.50
71142;DHT22;58808;59.366;17.970;2023-06-10T12:09:12;23.70;35.60
71142;DHT22;58808;59.366;17.970;2023-06-10T12:11:38;23.40;31.60
71142;DHT22;58808;59.366;17.970;2023-06-10T12:14:05;23.20;32.20
71142;DHT22;58808;59.366;17.970;2023-06-10T12:16:31;23.00;32.70
71142;DHT22;58808;59.366;17.970;2023-06-10T12:19:06;22.80;32.90
71142;DHT22;58808;59.366;17.970;2023-06-10T12:21:33;22.60;33.20
71142;DHT22;58808;59.366;17.970;2023-06-10T12:24:04;22.70;33.20
71142;DHT22;58808;59.366;17.970;2023-06-10T12:26:44;22.70;32.00
71142;DHT22;58808;59.366;17.970;2023-06-10T12:32:00;22.70;31.30
71142;DHT22;58808;59.366;17.970;2023-06-10T12:34:38;22.80;31.90
71142;DHT22;58808;59.366;17.970;2023-06-10T12:37:06;23.00;33.90
71142;DHT22;58808;59.366;17.970;2023-06-10T12:39:37;23.30;31.80
71142;DHT22;58808;59.366;17.970;2023-06-10T12:42:03;23.50;31.50
71142;DHT22;58808;59.366;17.970;2023-06-10T12:44:31;23.50;31.00
71142;DHT22;58808;59.366;17.970;2023-06-10T12:46:57;23.00;28.80
71142;DHT22;58808;59.366;17.970;2023-06-10T12:49:23;22.80;30.20
71142;DHT22;58808;59.366;17.970;2023-06-10T12:51:49;22.70;30.00
71142;DHT22;58808;59.366;17.970;2023-06-10T12:54:14;22.70;29.90
71142;DHT22;58808;59.366;17.970;2023-06-10T12:56:40;22.80;29.50
71142;DHT22;58808;59.366;17.970;2023-06-10T12:59:06;22.90;30.70
71142;DHT22;58808;59.366;17.970;2023-06-10T13:01:31;23.20;29.20
71142;DHT22;58808;59.366;17.970;2023-06-10T13:03:58;23.10;27.40
71142;DHT22;58808;59.366;17.970;2023-06-10T13:06:25;22.90;28.10
71142;DHT22;58808;59.366;17.970;2023-06-10T13:08:51;22.60;28.60
71142;DHT22;58808;59.366;17.970;2023-06-10T13:11:17;22.20;29.70
71142;DHT22;58808;59.366;17.970;2023-06-10T13:13:43;22.50;28.60
71142;DHT22;58808;59.366;17.970;2023-06-10T13:16:08;22.80;30.00
71142;DHT22;58808;59.366;17.970;2023-06-10T13:18:34;23.10;30.00
71142;DHT22;58808;59.366;17.970;2023-06-10T13:21:05;23.40;29.40
71142;DHT22;58808;59.366;17.970;2023-06-10T13:23:31;23.20;27.70
71142;DHT22;58808;59.366;17.970;2023-06-10T13:25:58;22.70;27.70
71142;DHT22;58808;59.366;17.970;2023-06-10T13:28:23;22.20;28.80
71142;DHT22;58808;59.366;17.970;2023-06-10T13:30:50;22.30;30.20
71142;DHT22;58808;59.366;17.970;2023-06-10T13:33:15;22.70;30.10
71142;DHT22;58808;59.366;17.970;2023-06-10T13:35:41;23.00;29.10
71142;DHT22;58808;59.366;17.970;2023-06-10T13:38:07;23.20;28.80
71142;DHT22;58808;59.366;17.970;2023-06-10T13:40:33;23.40;28.60
71142;DHT22;58808;59.366;17.970;2023-06-10T13:42:59;23.10;27.40
71142;DHT22;58808;59.366;17.970;2023-06-10T13:45:25;23.20;27.50
71142;DHT22;58808;59.366;17.970;2023-06-10T13:47:51;22.60;28.60
71142;DHT22;58808;59.366;17.970;2023-06-10T13:50:16;22.90;29.30
71142;DHT22;58808;59.366;17.970;2023-06-10T13:52:42;23.20;28.40
71142;DHT22;58808;59.366;17.970;2023-06-10T13:55:08;23.10;27.00
71142;DHT22;58808;59.366;17.970;2023-06-10T13:57:34;22.90;28.10
71142;DHT22;58808;59.366;17.970;2023-06-10T14:00:00;23.30;28.20
71142;DHT22;58808;59.366;17.970;2023-06-10T14:02:26;23.50;27.70
71142;DHT22;58808;59.366;17.970;2023-06-10T14:04:51;23.80;27.80
71142;DHT22;58808;59.366;17.970;2023-06-10T14:07:17;23.60;26.80
71142;DHT22;58808;59.366;17.970;2023-06-10T14:09:43;23.40;26.50
71142;DHT22;58808;59.366;17.970;2023-06-10T14:12:09;23.40;27.70
71142;DHT22;58808;59.366;17.970;2023-06-10T14:14:36;23.70;26.90
71142;DHT22;58808;59.366;17.970;2023-06-10T14:17:02;23.40;27.00
71142;DHT22;58808;59.366;17.970;2023-06-10T14:19:30;22.70;27.50
71142;DHT22;58808;59.366;17.970;2023-06-10T14:21:56;22.90;26.90
71142;DHT22;58808;59.366;17.970;2023-06-10T14:24:22;23.00;26.90
71142;DHT22;58808;59.366;17.970;2023-06-10T14:26:47;22.90;27.90
71142;DHT22;58808;59.366;17.970;2023-06-10T14:29:13;23.10;27.10
71142;DHT22;58808;59.366;17.970;2023-06-10T14:31:40;23.00;26.10
71142;DHT22;58808;59.366;17.970;2023-06-10T14:34:06;22.80;26.70
71142;DHT22;58808;59.366;17.970;2023-06-10T14:36:33;22.40;26.70
71142;DHT22;58808;59.366;17.970;2023-06-10T14:38:59;22.50;26.50
71142;DHT22;58808;59.366;17.970;2023-06-10T14:41:25;22.40;27.30
71142;DHT22;58808;59.366;17.970;2023-06-10T14:43:52;22.70;27.70
71142;DHT22;58808;59.366;17.970;2023-06-10T14:46:17;23.00;27.40
71142;DHT22;58808;59.366;17.970;2023-06-10T14:48:43;23.30;27.20
71142;DHT22;58808;59.366;17.970;2023-06-10T14:51:09;22.60;26.40
71142;DHT22;58808;59.366;17.970;2023-06-10T14:53:35;22.10;27.20
71142;DHT22;58808;59.366;17.970;2023-06-10T14:56:00;22.20;27.30
71142;DHT22;58808;59.366;17.970;2023-06-10T14:58:26;22.40;28.00
71142;DHT22;58808;59.366;17.970;2023-06-10T15:00:52;22.50;27.50
71142;DHT22;58808;59.366;17.970;2023-06-10T15:03:18;22.60;28.20
71142;DHT22;58808;59.366;17.970;2023-06-10T15:05:43;22.80;27.40
71142;DHT22;58808;59.366;17.970;2023-06-10T15:08:09;23.10;27.40
71142;DHT22;58808;59.366;17.970;2023-06-10T15:10:35;23.10;27.40
71142;DHT22;58808;59.366;17.970;2023-06-10T15:13:00;23.10;26.90
71142;DHT22;58808;59.366;17.970;2023-06-10T15:15:26;22.80;27.30
71142;DHT22;58808;59.366;17.970;2023-06-10T15:17:53;22.80;27.10
71142;DHT22;58808;59.366;17.970;2023-06-10T15:20:19;22.70;27.40
71142;DHT22;58808;59.366;17.970;2023-06-10T15:22:45;22.30;27.30
71142;DHT22;58808;59.366;17.970;2023-06-10T15:25:11;22.50;28.10
71142;DHT22;58808;59.366;17.970;2023-06-10T15:27:37;22.70;27.20
71142;DHT22;58808;59.366;17.970;2023-06-10T15:30:03;22.60;27.40
71142;DHT22;58808;59.366;17.970;2023-06-10T15:32:28;22.70;28.00